createdAt,value
2018-09-24T00:00:45.436Z,948.47
2018-09-24T00:01:53.462Z,948.44
2018-09-24T00:03:01.534Z,948.47
2018-09-24T00:04:09.602Z,948.50
2018-09-24T00:05:17.758Z,948.54
2018-09-24T00:06:25.732Z,948.54
2018-09-24T00:07:33.792Z,948.59
2018-09-24T00:08:41.852Z,948.64
2018-09-24T00:09:50.020Z,948.59
2018-09-24T00:10:58.069Z,948.63
2018-09-24T00:12:06.028Z,948.61
2018-09-24T00:13:14.103Z,948.68
2018-09-24T00:14:22.279Z,948.68
2018-09-24T00:15:30.227Z,948.70
2018-09-24T00:16:38.395Z,948.75
2018-09-24T00:17:46.354Z,948.76
2018-09-24T00:18:54.412Z,948.77
2018-09-24T00:20:02.455Z,948.75
2018-09-24T00:21:10.523Z,948.75
2018-09-24T00:22:18.694Z,948.75
2018-09-24T00:23:26.657Z,948.75
2018-09-24T00:24:34.729Z,948.82
2018-09-24T00:25:42.860Z,948.79
2018-09-24T00:26:50.846Z,948.81
2018-09-24T00:27:58.989Z,948.84
2018-09-24T00:29:06.968Z,948.83
2018-09-24T00:30:15.022Z,948.93
2018-09-24T00:31:23.067Z,948.96
2018-09-24T00:32:31.150Z,948.96
2018-09-24T00:33:39.306Z,948.97
2018-09-24T00:34:47.285Z,948.96
2018-09-24T00:35:55.335Z,948.91
2018-09-24T00:37:03.378Z,948.94
2018-09-24T00:38:11.465Z,948.93
2018-09-24T00:39:19.622Z,948.94
2018-09-24T00:40:27.578Z,948.94
2018-09-24T00:41:35.746Z,948.89
2018-09-24T00:42:43.727Z,948.95
2018-09-24T00:43:51.773Z,948.95
2018-09-24T00:44:59.934Z,949.00
2018-09-24T00:46:07.892Z,949.01
2018-09-24T00:47:15.950Z,948.99
2018-09-24T00:48:24.013Z,948.97
2018-09-24T00:49:32.080Z,949.01
2018-09-24T00:50:40.239Z,949.07
2018-09-24T00:51:48.199Z,949.07
2018-09-24T00:52:56.262Z,949.07
2018-09-24T00:54:04.326Z,949.12
2018-09-24T00:55:12.384Z,949.09
2018-09-24T00:56:20.567Z,949.08
2018-09-24T00:57:28.600Z,949.14
2018-09-24T00:58:36.560Z,949.10
2018-09-24T00:59:44.627Z,949.09
2018-09-24T01:00:52.679Z,949.11
2018-09-24T01:02:00.851Z,949.10
2018-09-24T01:03:08.894Z,949.12
2018-09-24T01:04:16.875Z,949.13
2018-09-24T01:05:24.936Z,949.11
2018-09-24T01:06:32.977Z,949.14
2018-09-24T01:07:41.150Z,949.10
2018-09-24T01:08:49.117Z,949.13
2018-09-24T01:09:57.170Z,949.10
2018-09-24T01:11:05.244Z,949.10
2018-09-24T01:12:13.287Z,949.14
2018-09-24T01:13:21.457Z,949.13
2018-09-24T01:14:29.424Z,949.15
2018-09-24T01:15:37.492Z,949.18
2018-09-24T01:16:45.555Z,949.19
2018-09-24T01:17:53.750Z,949.19
2018-09-24T01:19:01.780Z,949.18
2018-09-24T01:20:09.734Z,949.15
2018-09-24T01:21:17.804Z,949.19
2018-09-24T01:22:25.856Z,949.18
2018-09-24T01:23:33.922Z,949.21
2018-09-24T01:24:42.076Z,949.20
2018-09-24T01:25:50.038Z,949.28
2018-09-24T01:26:58.111Z,949.28
2018-09-24T01:28:06.149Z,949.26
2018-09-24T01:29:14.333Z,949.27
2018-09-24T01:30:22.377Z,949.27
2018-09-24T01:31:30.341Z,949.22
2018-09-24T01:32:38.413Z,949.21
2018-09-24T01:33:46.462Z,949.22
2018-09-24T01:34:54.530Z,949.23
2018-09-24T01:36:02.620Z,949.25
2018-09-24T01:37:10.660Z,949.23
2018-09-24T01:38:18.711Z,949.23
2018-09-24T01:39:26.764Z,949.24
2018-09-24T01:40:34.826Z,949.18
2018-09-24T01:41:42.952Z,949.19
2018-09-24T01:42:50.951Z,949.21
2018-09-24T01:43:59.013Z,949.20
2018-09-24T01:45:07.167Z,949.23
2018-09-24T01:46:15.144Z,949.22
2018-09-24T01:47:23.228Z,949.23
2018-09-24T01:48:31.260Z,949.30
2018-09-24T01:49:39.318Z,949.28
2018-09-24T01:50:47.368Z,949.31
2018-09-24T01:51:55.434Z,949.25
2018-09-24T01:53:03.577Z,949.26
2018-09-24T01:54:11.558Z,949.27
2018-09-24T01:55:19.622Z,949.29
2018-09-24T01:56:27.680Z,949.29
2018-09-24T01:57:35.730Z,949.33
2018-09-24T01:58:43.890Z,949.36
2018-09-24T01:59:51.863Z,949.35
2018-09-24T02:00:59.983Z,949.39
2018-09-24T02:02:07.991Z,949.41
2018-09-24T02:03:16.038Z,949.44
2018-09-24T02:04:24.189Z,949.44
2018-09-24T02:05:32.162Z,949.45
2018-09-24T02:06:40.231Z,949.42
2018-09-24T02:07:48.289Z,949.44
2018-09-24T02:08:56.350Z,949.48
2018-09-24T02:10:04.510Z,949.50
2018-09-24T02:11:12.464Z,949.49
2018-09-24T02:12:20.532Z,949.50
2018-09-24T02:13:28.592Z,949.53
2018-09-24T02:14:36.656Z,949.54
2018-09-24T02:15:44.818Z,949.58
2018-09-24T02:16:52.832Z,949.55
2018-09-24T02:18:00.837Z,949.53
2018-09-24T02:19:08.897Z,949.59
2018-09-24T02:20:16.945Z,949.59
2018-09-24T02:21:25.243Z,949.62
2018-09-24T02:22:33.054Z,949.62
2018-09-24T02:23:41.236Z,949.64
2018-09-24T02:24:49.192Z,949.70
2018-09-24T02:25:57.255Z,949.69
2018-09-24T02:27:05.454Z,949.74
2018-09-24T02:28:13.354Z,949.73
2018-09-24T02:29:21.438Z,949.71
2018-09-24T02:30:29.496Z,949.72
2018-09-24T02:31:37.552Z,949.70
2018-09-24T02:32:45.724Z,949.72
2018-09-24T02:33:53.681Z,949.74
2018-09-24T02:35:01.743Z,949.75
2018-09-24T02:36:09.809Z,949.76
2018-09-24T02:37:17.858Z,949.76
2018-09-24T02:38:26.030Z,949.74
2018-09-24T02:39:33.975Z,949.77
2018-09-24T02:40:42.044Z,949.80
2018-09-24T02:41:50.096Z,949.77
2018-09-24T02:42:58.171Z,949.75
2018-09-24T02:44:06.319Z,949.74
2018-09-24T02:45:14.325Z,949.80
2018-09-24T02:46:22.332Z,949.78
2018-09-24T02:47:30.420Z,949.82
2018-09-24T02:48:38.561Z,949.82
2018-09-24T02:49:46.615Z,949.85
2018-09-24T02:50:54.582Z,949.82
2018-09-24T02:52:02.637Z,949.81
2018-09-24T02:53:10.696Z,949.81
2018-09-24T02:54:18.759Z,949.78
2018-09-24T02:55:26.921Z,949.82
2018-09-24T02:56:34.883Z,949.82
2018-09-24T02:57:42.950Z,949.84
2018-09-24T02:58:51.004Z,949.84
2018-09-24T02:59:59.062Z,949.87
2018-09-24T03:01:07.274Z,949.85
2018-09-24T03:02:15.187Z,949.88
2018-09-24T03:03:23.230Z,949.92
2018-09-24T03:04:31.396Z,949.93
2018-09-24T03:05:39.357Z,949.98
2018-09-24T03:06:47.520Z,949.96
2018-09-24T03:07:55.482Z,949.98
2018-09-24T03:09:03.536Z,950.01
2018-09-24T03:10:11.602Z,950.03
2018-09-24T03:11:19.705Z,950.02
2018-09-24T03:12:27.821Z,950.00
2018-09-24T03:13:35.781Z,950.02
2018-09-24T03:14:43.835Z,950.05
2018-09-24T03:15:51.900Z,950.08
2018-09-24T03:16:59.974Z,950.14
2018-09-24T03:18:08.127Z,950.11
2018-09-24T03:19:16.215Z,950.17
2018-09-24T03:20:24.231Z,950.15
2018-09-24T03:21:32.188Z,950.16
2018-09-24T03:22:40.271Z,950.15
2018-09-24T03:23:48.429Z,950.17
2018-09-24T03:24:56.380Z,950.17
2018-09-24T03:26:04.491Z,950.13
2018-09-24T03:27:12.494Z,950.15
2018-09-24T03:28:20.564Z,950.10
2018-09-24T03:29:28.712Z,950.09
2018-09-24T03:30:36.688Z,950.13
2018-09-24T03:31:44.752Z,950.12
2018-09-24T03:32:52.771Z,950.13
2018-09-24T03:34:00.862Z,950.14
2018-09-24T03:35:09.016Z,950.16
2018-09-24T03:36:17.077Z,950.14
2018-09-24T03:37:25.037Z,950.17
2018-09-24T03:38:33.077Z,950.19
2018-09-24T03:39:41.162Z,950.22
2018-09-24T03:40:49.318Z,950.21
2018-09-24T03:41:57.394Z,950.22
2018-09-24T03:43:05.335Z,950.26
2018-09-24T03:44:13.383Z,950.25
2018-09-24T03:45:21.450Z,950.24
2018-09-24T03:46:29.608Z,950.26
2018-09-24T03:47:37.566Z,950.26
2018-09-24T03:48:45.626Z,950.29
2018-09-24T03:49:53.682Z,950.28
2018-09-24T03:51:01.745Z,950.28
2018-09-24T03:52:09.913Z,950.30
2018-09-24T03:53:18.680Z,950.33
2018-09-24T03:54:26.125Z,950.39
2018-09-24T03:55:34.396Z,950.41
2018-09-24T03:56:42.256Z,950.40
2018-09-24T03:57:50.400Z,950.45
2018-09-24T03:58:58.415Z,950.51
2018-09-24T04:00:06.621Z,950.53
2018-09-24T04:01:14.928Z,950.54
2018-09-24T04:02:23.327Z,950.58
2018-09-24T04:03:31.547Z,950.61
2018-09-24T04:04:40.072Z,950.68
2018-09-24T04:05:48.137Z,950.69
2018-09-24T04:06:56.202Z,950.75
2018-09-24T04:08:04.351Z,950.79
2018-09-24T04:09:13.020Z,950.80
2018-09-24T04:10:22.190Z,950.83
2018-09-24T04:11:30.855Z,950.83
2018-09-24T04:12:38.719Z,950.84
2018-09-24T04:13:48.794Z,950.83
2018-09-24T04:14:56.977Z,950.86
2018-09-24T04:16:04.914Z,950.88
2018-09-24T04:17:14.895Z,950.89
2018-09-24T04:18:29.901Z,950.97
2018-09-24T04:19:38.028Z,951.01
2018-09-24T04:20:46.325Z,951.03
2018-09-24T04:21:54.720Z,951.08
2018-09-24T04:23:02.723Z,951.15
2018-09-24T04:24:10.806Z,951.22
2018-09-24T04:25:18.853Z,951.25
2018-09-24T04:26:27.012Z,951.30
2018-09-24T04:27:35.002Z,951.34
2018-09-24T04:28:43.014Z,951.42
2018-09-24T04:29:51.093Z,951.40
2018-09-24T04:30:59.149Z,951.45
2018-09-24T04:32:08.655Z,951.43
2018-09-24T04:33:15.355Z,951.47
2018-09-24T04:34:23.319Z,951.48
2018-09-24T04:35:31.398Z,951.50
2018-09-24T04:36:39.512Z,951.50
2018-09-24T04:37:47.603Z,951.49
2018-09-24T04:38:55.565Z,951.53
2018-09-24T04:40:03.617Z,951.56
2018-09-24T04:41:11.683Z,951.58
2018-09-24T04:42:19.764Z,951.62
2018-09-24T04:43:27.895Z,951.63
2018-09-24T04:44:35.854Z,951.64
2018-09-24T04:45:44.013Z,951.61
2018-09-24T04:46:52.009Z,951.65
2018-09-24T04:48:00.096Z,951.67
2018-09-24T04:49:08.253Z,951.71
2018-09-24T04:50:16.149Z,951.71
2018-09-24T04:51:24.213Z,951.72
2018-09-24T04:52:32.438Z,951.74
2018-09-24T04:53:40.337Z,951.82
2018-09-24T04:54:48.492Z,951.85
2018-09-24T04:55:56.434Z,951.88
2018-09-24T04:57:04.662Z,951.91
2018-09-24T04:58:12.538Z,951.91
2018-09-24T04:59:20.624Z,951.92
2018-09-24T05:00:28.727Z,951.98
2018-09-24T05:01:36.838Z,952.05
2018-09-24T05:02:44.804Z,952.02
2018-09-24T05:03:52.846Z,952.04
2018-09-24T05:05:01.014Z,952.10
2018-09-24T05:06:09.081Z,952.15
2018-09-24T05:07:17.048Z,952.20
2018-09-24T05:08:25.088Z,952.22
2018-09-24T05:09:33.148Z,952.24
2018-09-24T05:10:41.209Z,952.25
2018-09-24T05:11:49.647Z,952.25
2018-09-24T05:12:57.465Z,952.24
2018-09-24T05:14:05.522Z,952.28
2018-09-24T05:15:13.678Z,952.32
2018-09-24T05:16:21.574Z,952.37
2018-09-24T05:17:29.675Z,952.37
2018-09-24T05:18:37.647Z,952.42
2018-09-24T05:19:45.694Z,952.43
2018-09-24T05:20:54.311Z,952.45
2018-09-24T05:22:01.812Z,952.42
2018-09-24T05:23:10.062Z,952.39
2018-09-24T05:24:17.929Z,952.47
2018-09-24T05:25:25.992Z,952.47
2018-09-24T05:26:34.057Z,952.46
2018-09-24T05:27:42.098Z,952.48
2018-09-24T05:28:50.250Z,952.56
2018-09-24T05:29:58.230Z,952.64
2018-09-24T05:31:06.326Z,952.73
2018-09-24T05:32:14.387Z,952.78
2018-09-24T05:33:22.440Z,952.86
2018-09-24T05:34:30.642Z,952.86
2018-09-24T05:35:38.528Z,952.83
2018-09-24T05:36:46.671Z,952.86
2018-09-24T05:37:54.638Z,952.87
2018-09-24T05:39:02.678Z,952.85
2018-09-24T05:40:10.847Z,952.97
2018-09-24T05:41:18.850Z,952.95
2018-09-24T05:42:26.891Z,953.03
2018-09-24T05:43:34.930Z,953.00
2018-09-24T05:44:42.971Z,953.07
2018-09-24T05:45:51.143Z,953.12
2018-09-24T05:46:59.122Z,953.06
2018-09-24T05:48:07.165Z,953.09
2018-09-24T05:49:15.227Z,953.10
2018-09-24T05:50:23.271Z,953.08
2018-09-24T05:51:31.441Z,953.13
2018-09-24T05:52:39.514Z,953.16
2018-09-24T05:53:47.472Z,953.16
2018-09-24T05:54:55.532Z,953.26
2018-09-24T05:56:03.587Z,953.32
2018-09-24T05:57:11.758Z,953.40
2018-09-24T05:58:19.718Z,953.44
2018-09-24T05:59:27.768Z,953.46
2018-09-24T06:00:35.834Z,953.52
2018-09-24T06:01:43.872Z,953.59
2018-09-24T06:02:52.046Z,953.59
2018-09-24T06:04:00.015Z,953.60
2018-09-24T06:05:08.057Z,953.67
2018-09-24T06:06:16.132Z,953.69
2018-09-24T06:07:24.189Z,953.71
2018-09-24T06:08:32.346Z,953.74
2018-09-24T06:09:40.314Z,953.74
2018-09-24T06:10:48.373Z,953.76
2018-09-24T06:11:56.441Z,953.76
2018-09-24T06:13:04.580Z,953.79
2018-09-24T06:14:12.633Z,953.78
2018-09-24T06:15:20.600Z,953.76
2018-09-24T06:16:28.669Z,953.76
2018-09-24T06:17:36.945Z,953.73
2018-09-24T06:18:44.789Z,953.78
2018-09-24T06:19:52.916Z,953.79
2018-09-24T06:21:00.914Z,953.83
2018-09-24T06:22:08.962Z,953.83
2018-09-24T06:23:17.037Z,953.88
2018-09-24T06:24:25.093Z,953.95
2018-09-24T06:25:33.218Z,954.01
2018-09-24T06:26:41.226Z,954.02
2018-09-24T06:27:49.273Z,954.09
2018-09-24T06:28:57.336Z,954.10
2018-09-24T06:30:05.393Z,954.11
2018-09-24T06:31:13.544Z,954.13
2018-09-24T06:32:21.513Z,954.08
2018-09-24T06:33:29.670Z,954.09
2018-09-24T06:34:37.645Z,954.11
2018-09-24T06:35:45.693Z,954.17
2018-09-24T06:36:53.855Z,954.21
2018-09-24T06:38:01.814Z,954.28
2018-09-24T06:39:09.874Z,954.27
2018-09-24T06:40:17.938Z,954.34
2018-09-24T06:41:25.986Z,954.32
2018-09-24T06:42:34.103Z,954.34
2018-09-24T06:43:42.109Z,954.44
2018-09-24T06:44:50.180Z,954.46
2018-09-24T06:45:58.244Z,954.52
2018-09-24T06:47:06.301Z,954.54
2018-09-24T06:48:14.456Z,954.55
2018-09-24T06:49:22.516Z,954.46
2018-09-24T06:50:30.484Z,954.46
2018-09-24T06:51:38.542Z,954.47
2018-09-24T06:52:46.609Z,954.47
2018-09-24T06:53:54.773Z,954.51
2018-09-24T06:55:02.708Z,954.52
2018-09-24T06:56:10.783Z,954.55
2018-09-24T06:57:18.839Z,954.56
2018-09-24T06:58:26.911Z,954.62
2018-09-24T06:59:35.104Z,954.64
2018-09-24T07:00:43.009Z,954.73
2018-09-24T07:01:51.092Z,954.77
2018-09-24T07:02:59.154Z,954.74
2018-09-24T07:04:07.215Z,954.79
2018-09-24T07:05:15.395Z,954.79
2018-09-24T07:06:23.353Z,954.85
2018-09-24T07:07:31.385Z,954.86
2018-09-24T07:08:39.457Z,954.86
2018-09-24T07:09:47.524Z,954.80
2018-09-24T07:10:55.677Z,954.81
2018-09-24T07:12:03.633Z,954.84
2018-09-24T07:13:11.701Z,954.84
2018-09-24T07:14:19.896Z,954.91
2018-09-24T07:15:27.813Z,954.93
2018-09-24T07:16:35.972Z,954.92
2018-09-24T07:17:43.945Z,954.96
2018-09-24T07:18:52.017Z,955.00
2018-09-24T07:20:00.066Z,955.13
2018-09-24T07:21:08.216Z,955.29
2018-09-24T07:22:16.274Z,955.32
2018-09-24T07:23:24.240Z,955.34
2018-09-24T07:24:32.316Z,955.34
2018-09-24T07:25:40.372Z,955.40
2018-09-24T07:26:48.428Z,955.52
2018-09-24T07:27:56.606Z,955.84
2018-09-24T07:29:04.553Z,955.61
2018-09-24T07:30:12.620Z,955.67
2018-09-24T07:31:20.666Z,955.61
2018-09-24T07:32:28.732Z,955.61
2018-09-24T07:33:36.884Z,955.58
2018-09-24T07:34:44.858Z,955.51
2018-09-24T07:35:52.903Z,955.50
2018-09-24T07:37:01.085Z,955.45
2018-09-24T07:38:09.041Z,955.43
2018-09-24T07:39:17.189Z,955.41
2018-09-24T07:40:25.163Z,955.48
2018-09-24T07:41:33.205Z,955.53
2018-09-24T07:42:41.285Z,955.68
2018-09-24T07:43:49.346Z,955.71
2018-09-24T07:44:57.516Z,955.68
2018-09-24T07:46:05.487Z,955.74
2018-09-24T07:47:13.518Z,955.80
2018-09-24T07:48:21.587Z,955.86
2018-09-24T07:49:29.668Z,955.88
2018-09-24T07:50:37.826Z,955.89
2018-09-24T07:51:45.775Z,955.91
2018-09-24T07:52:53.944Z,956.13
2018-09-24T07:54:01.903Z,956.08
2018-09-24T07:55:09.976Z,955.79
2018-09-24T07:56:18.128Z,955.71
2018-09-24T07:57:26.104Z,955.86
2018-09-24T07:58:34.153Z,957.53
2018-09-24T07:59:42.240Z,961.13
2018-09-24T08:00:50.307Z,960.85
2018-09-24T08:01:58.439Z,960.54
2018-09-24T08:03:06.429Z,959.84
2018-09-24T08:04:14.465Z,960.15
2018-09-24T08:05:22.542Z,959.50
2018-09-24T08:06:30.596Z,958.65
2018-09-24T08:07:38.757Z,961.93
2018-09-24T08:08:46.830Z,963.64
2018-09-24T08:09:54.805Z,962.25
2018-09-24T08:11:02.884Z,961.63
2018-09-24T08:12:10.927Z,959.83
2018-09-24T08:13:19.098Z,961.23
2018-09-24T08:14:27.053Z,962.35
2018-09-24T08:15:35.122Z,959.55
2018-09-24T08:16:43.151Z,959.54
2018-09-24T08:17:51.257Z,958.39
2018-09-24T08:18:59.416Z,958.15
2018-09-24T08:20:07.380Z,957.59
2018-09-24T08:21:15.457Z,957.31
2018-09-24T08:22:23.505Z,958.03
2018-09-24T08:23:31.575Z,960.26
2018-09-24T08:24:39.738Z,958.21
2018-09-24T08:25:47.704Z,956.35
2018-09-24T08:26:55.766Z,956.33
2018-09-24T08:28:03.837Z,956.32
2018-09-24T08:29:11.899Z,956.58
2018-09-24T08:30:20.047Z,956.60
2018-09-24T08:31:28.037Z,956.58
2018-09-24T08:32:36.090Z,956.39
2018-09-24T08:33:44.154Z,956.42
2018-09-24T08:34:52.229Z,956.50
2018-09-24T08:36:00.378Z,956.49
2018-09-24T08:37:08.350Z,956.52
2018-09-24T08:38:16.513Z,956.66
2018-09-24T08:39:24.470Z,956.74
2018-09-24T08:40:32.541Z,956.70
2018-09-24T08:41:40.710Z,956.53
2018-09-24T08:42:48.685Z,956.55
2018-09-24T08:43:57.162Z,956.58
2018-09-24T08:45:04.801Z,956.60
2018-09-24T08:46:12.840Z,956.60
2018-09-24T08:47:21.042Z,956.63
2018-09-24T08:48:29.001Z,956.65
2018-09-24T08:49:37.108Z,956.53
2018-09-24T08:50:45.129Z,956.57
2018-09-24T08:51:53.170Z,956.56
2018-09-24T08:53:01.340Z,956.53
2018-09-24T08:54:09.319Z,956.46
2018-09-24T08:55:17.479Z,956.49
2018-09-24T08:56:25.462Z,956.48
2018-09-24T08:57:33.503Z,956.49
2018-09-24T08:58:41.670Z,956.42
2018-09-24T08:59:49.648Z,956.39
2018-09-24T09:00:57.705Z,956.38
2018-09-24T09:02:05.768Z,956.42
2018-09-24T09:03:13.832Z,956.44
2018-09-24T09:04:21.990Z,956.41
2018-09-24T09:05:29.957Z,956.43
2018-09-24T09:06:38.157Z,956.49
2018-09-24T09:07:46.083Z,956.47
2018-09-24T09:08:54.146Z,956.54
2018-09-24T09:10:02.306Z,956.53
2018-09-24T09:11:10.369Z,956.62
2018-09-24T09:12:18.342Z,956.63
2018-09-24T09:13:26.406Z,956.53
2018-09-24T09:14:34.461Z,956.59
2018-09-24T09:15:42.621Z,956.63
2018-09-24T09:16:50.600Z,956.71
2018-09-24T09:17:58.660Z,956.73
2018-09-24T09:19:06.730Z,956.71
2018-09-24T09:20:14.784Z,956.70
2018-09-24T09:21:22.875Z,956.66
2018-09-24T09:22:30.922Z,956.74
2018-09-24T09:23:38.969Z,956.76
2018-09-24T09:24:47.125Z,956.72
2018-09-24T09:25:55.124Z,956.65
2018-09-24T09:27:03.282Z,956.65
2018-09-24T09:28:11.241Z,956.61
2018-09-24T09:29:19.353Z,956.58
2018-09-24T09:30:27.352Z,956.55
2018-09-24T09:31:35.423Z,956.56
2018-09-24T09:32:43.577Z,956.60
2018-09-24T09:33:51.559Z,956.63
2018-09-24T09:34:59.626Z,956.65
2018-09-24T09:36:07.693Z,956.61
2018-09-24T09:37:15.742Z,956.63
2018-09-24T09:38:23.890Z,956.64
2018-09-24T09:39:31.871Z,956.68
2018-09-24T09:40:39.948Z,956.82
2018-09-24T09:41:48.003Z,956.79
2018-09-24T09:42:56.163Z,956.89
2018-09-24T09:44:04.278Z,956.88
2018-09-24T09:45:12.193Z,956.80
2018-09-24T09:46:20.246Z,956.93
2018-09-24T09:47:28.319Z,956.93
2018-09-24T09:48:36.377Z,956.98
2018-09-24T09:49:44.528Z,957.01
2018-09-24T09:50:52.504Z,957.03
2018-09-24T09:52:00.565Z,957.00
2018-09-24T09:53:08.630Z,957.02
2018-09-24T09:54:16.698Z,956.97
2018-09-24T09:55:24.854Z,956.86
2018-09-24T09:56:32.809Z,956.86
2018-09-24T09:57:40.901Z,956.73
2018-09-24T09:58:49.060Z,956.71
2018-09-24T09:59:57.029Z,956.64
2018-09-24T10:01:05.181Z,956.66
2018-09-24T10:02:13.117Z,956.73
2018-09-24T10:03:21.217Z,956.70
2018-09-24T10:04:29.275Z,956.70
2018-09-24T10:05:37.339Z,956.76
2018-09-24T10:06:45.452Z,956.79
2018-09-24T10:07:53.441Z,956.84
2018-09-24T10:09:01.654Z,956.79
2018-09-24T10:10:09.591Z,956.77
2018-09-24T10:11:17.711Z,956.85
2018-09-24T10:12:25.823Z,956.87
2018-09-24T10:13:33.785Z,956.85
2018-09-24T10:14:41.950Z,956.79
2018-09-24T10:15:49.925Z,956.77
2018-09-24T10:16:57.980Z,956.77
2018-09-24T10:18:06.126Z,956.83
2018-09-24T10:19:14.101Z,956.81
2018-09-24T10:20:22.160Z,956.85
2018-09-24T10:21:30.224Z,956.85
2018-09-24T10:22:38.315Z,956.82
2018-09-24T10:23:46.469Z,956.88
2018-09-24T10:24:54.428Z,956.82
2018-09-24T10:26:02.496Z,956.79
2018-09-24T10:27:10.564Z,956.73
2018-09-24T10:28:18.624Z,956.70
2018-09-24T10:29:26.777Z,956.66
2018-09-24T10:30:34.841Z,956.64
2018-09-24T10:31:42.818Z,956.70
2018-09-24T10:32:50.876Z,956.67
2018-09-24T10:33:58.942Z,956.66
2018-09-24T10:35:07.106Z,956.59
2018-09-24T10:36:15.080Z,956.54
2018-09-24T10:37:23.121Z,956.57
2018-09-24T10:38:31.202Z,956.61
2018-09-24T10:39:39.320Z,956.67
2018-09-24T10:40:47.418Z,956.57
2018-09-24T10:41:55.398Z,956.63
2018-09-24T10:43:03.477Z,956.58
2018-09-24T10:44:11.519Z,956.55
2018-09-24T10:45:19.619Z,956.55
2018-09-24T10:46:27.742Z,956.64
2018-09-24T10:47:35.717Z,956.64
2018-09-24T10:48:43.777Z,956.55
2018-09-24T10:49:51.842Z,956.64
2018-09-24T10:50:59.919Z,956.57
2018-09-24T10:52:08.066Z,956.49
2018-09-24T10:53:16.049Z,956.45
2018-09-24T10:54:24.093Z,956.44
2018-09-24T10:55:32.151Z,956.44
2018-09-24T10:56:40.221Z,956.47
2018-09-24T10:57:48.391Z,956.50
2018-09-24T10:58:56.356Z,956.48
2018-09-24T11:00:04.416Z,956.47
2018-09-24T11:01:12.484Z,956.55
2018-09-24T11:02:20.651Z,956.53
2018-09-24T11:03:28.712Z,956.54
2018-09-24T11:04:36.726Z,956.52
2018-09-24T11:05:44.860Z,956.54
2018-09-24T11:06:52.777Z,956.56
2018-09-24T11:08:00.880Z,956.52
2018-09-24T11:09:09.031Z,956.55
2018-09-24T11:10:17.028Z,956.55
2018-09-24T11:11:25.090Z,956.55
2018-09-24T11:12:33.114Z,956.56
2018-09-24T11:13:41.189Z,956.53
2018-09-24T11:14:49.347Z,956.61
2018-09-24T11:15:57.471Z,956.53
2018-09-24T11:17:05.588Z,956.58
2018-09-24T11:18:13.589Z,956.64
2018-09-24T11:19:21.535Z,956.72
2018-09-24T11:20:29.682Z,956.69
2018-09-24T11:21:37.658Z,956.63
2018-09-24T11:22:45.719Z,956.56
2018-09-24T11:23:53.779Z,956.62
2018-09-24T11:25:01.846Z,956.61
2018-09-24T11:26:10.006Z,956.58
2018-09-24T11:27:17.987Z,956.56
2018-09-24T11:28:26.037Z,956.57
2018-09-24T11:29:34.244Z,956.56
2018-09-24T11:30:42.175Z,956.51
2018-09-24T11:31:50.324Z,956.39
2018-09-24T11:32:58.304Z,956.39
2018-09-24T11:34:06.454Z,956.32
2018-09-24T11:35:14.454Z,956.30
2018-09-24T11:36:22.482Z,956.28
2018-09-24T11:37:30.702Z,956.33
2018-09-24T11:38:38.625Z,956.33
2018-09-24T11:39:46.698Z,956.40
2018-09-24T11:40:54.750Z,956.41
2018-09-24T11:42:02.814Z,956.48
2018-09-24T11:43:10.982Z,956.57
2018-09-24T11:44:18.956Z,956.57
2018-09-24T11:45:27.023Z,956.52
2018-09-24T11:46:35.172Z,956.44
2018-09-24T11:47:43.115Z,956.45
2018-09-24T11:48:51.258Z,956.47
2018-09-24T11:49:59.363Z,956.46
2018-09-24T11:51:07.346Z,956.45
2018-09-24T11:52:15.408Z,956.45
2018-09-24T11:53:23.450Z,956.35
2018-09-24T11:54:31.538Z,956.36
2018-09-24T11:55:39.617Z,956.37
2018-09-24T11:56:47.670Z,956.45
2018-09-24T11:57:55.731Z,956.41
2018-09-24T11:59:03.883Z,956.46
2018-09-24T12:00:11.861Z,956.46
2018-09-24T12:01:19.926Z,956.41
2018-09-24T12:02:28.184Z,956.40
2018-09-24T12:03:36.050Z,956.42
2018-09-24T12:04:44.217Z,956.41
2018-09-24T12:05:52.294Z,956.36
2018-09-24T12:07:00.242Z,956.37
2018-09-24T12:08:08.309Z,956.36
2018-09-24T12:09:16.372Z,956.40
2018-09-24T12:10:24.523Z,956.45
2018-09-24T12:11:32.509Z,956.40
2018-09-24T12:12:40.619Z,956.32
2018-09-24T12:13:48.649Z,956.29
2018-09-24T12:14:56.717Z,956.26
2018-09-24T12:16:04.861Z,956.24
2018-09-24T12:17:12.823Z,956.21
2018-09-24T12:18:20.912Z,956.19
2018-09-24T12:19:28.964Z,956.23
2018-09-24T12:20:37.040Z,956.22
2018-09-24T12:21:45.193Z,956.24
2018-09-24T12:22:53.142Z,956.16
2018-09-24T12:24:01.231Z,956.13
2018-09-24T12:25:09.280Z,956.19
2018-09-24T12:26:17.362Z,956.20
2018-09-24T12:27:25.511Z,956.24
2018-09-24T12:28:33.500Z,956.27
2018-09-24T12:29:41.560Z,956.32
2018-09-24T12:30:49.610Z,956.32
2018-09-24T12:31:57.673Z,956.33
2018-09-24T12:33:05.835Z,956.32
2018-09-24T12:34:13.805Z,956.31
2018-09-24T12:35:21.862Z,956.35
2018-09-24T12:36:29.934Z,956.33
2018-09-24T12:37:38.101Z,956.38
2018-09-24T12:38:46.149Z,956.38
2018-09-24T12:39:54.122Z,956.36
2018-09-24T12:41:02.179Z,956.28
2018-09-24T12:42:10.251Z,956.33
2018-09-24T12:43:18.330Z,956.27
2018-09-24T12:44:26.476Z,956.28
2018-09-24T12:45:34.445Z,956.29
2018-09-24T12:46:42.532Z,956.25
2018-09-24T12:47:50.622Z,956.18
2018-09-24T12:48:58.642Z,956.21
2018-09-24T12:50:06.751Z,956.17
2018-09-24T12:51:14.780Z,956.18
2018-09-24T12:52:22.824Z,956.20
2018-09-24T12:53:31.075Z,956.15
2018-09-24T12:54:38.968Z,956.12
2018-09-24T12:55:47.070Z,956.19
2018-09-24T12:56:55.112Z,956.21
2018-09-24T12:58:03.146Z,956.18
2018-09-24T12:59:11.229Z,956.20
2018-09-24T13:00:19.511Z,956.20
2018-09-24T13:01:27.355Z,956.22
2018-09-24T13:02:35.451Z,956.15
2018-09-24T13:03:43.476Z,956.21
2018-09-24T13:04:51.554Z,956.14
2018-09-24T13:05:59.711Z,956.16
2018-09-24T13:07:07.689Z,956.11
2018-09-24T13:08:15.762Z,956.07
2018-09-24T13:09:23.902Z,956.12
2018-09-24T13:10:31.879Z,956.05
2018-09-24T13:11:40.026Z,956.09
2018-09-24T13:12:47.993Z,956.15
2018-09-24T13:13:56.067Z,956.11
2018-09-24T13:15:04.135Z,956.18
2018-09-24T13:16:12.196Z,956.11
2018-09-24T13:17:20.365Z,956.09
2018-09-24T13:18:28.322Z,956.11
2018-09-24T13:19:36.382Z,956.13
2018-09-24T13:20:44.457Z,956.12
2018-09-24T13:21:52.517Z,956.12
2018-09-24T13:23:00.682Z,956.08
2018-09-24T13:24:08.646Z,956.15
2018-09-24T13:25:16.827Z,956.19
2018-09-24T13:26:24.808Z,956.21
2018-09-24T13:27:32.828Z,956.16
2018-09-24T13:28:40.993Z,956.10
2018-09-24T13:29:48.966Z,956.06
2018-09-24T13:30:57.027Z,956.10
2018-09-24T13:32:05.104Z,956.05
2018-09-24T13:33:13.141Z,956.06
2018-09-24T13:34:21.330Z,956.05
2018-09-24T13:35:29.292Z,956.02
2018-09-24T13:36:37.345Z,956.04
2018-09-24T13:37:45.419Z,956.07
2018-09-24T13:38:53.465Z,956.04
2018-09-24T13:40:01.684Z,956.09
2018-09-24T13:41:09.702Z,956.03
2018-09-24T13:42:17.715Z,956.06
2018-09-24T13:43:25.788Z,956.00
2018-09-24T13:44:33.812Z,956.03
2018-09-24T13:45:41.978Z,955.99
2018-09-24T13:46:49.941Z,955.99
2018-09-24T13:47:58.015Z,955.98
2018-09-24T13:49:06.073Z,955.96
2018-09-24T13:50:14.128Z,956.01
2018-09-24T13:51:22.241Z,956.00
2018-09-24T13:52:30.257Z,956.07
2018-09-24T13:53:38.322Z,956.05
2018-09-24T13:54:46.394Z,956.01
2018-09-24T13:55:56.358Z,956.03
2018-09-24T13:57:04.629Z,956.06
2018-09-24T13:58:12.601Z,955.94
2018-09-24T13:59:20.690Z,955.96
2018-09-24T14:01:39.500Z,955.97
2018-09-24T14:03:58.145Z,955.94
2018-09-24T14:05:06.226Z,955.91
2018-09-24T14:06:14.270Z,955.87
2018-09-24T14:07:22.433Z,955.91
2018-09-24T14:08:30.405Z,955.83
2018-09-24T14:09:38.480Z,955.89
2018-09-24T14:10:46.531Z,955.79
2018-09-24T14:11:54.597Z,955.82